Arnold, Michigan
Current Conditions -  °F | °C
As of 12:57 AM on Sunday 21 Dec 2014 (Local Time) from KSAW Reporting Station
Overcast Overcast  
Wind Chill: 17°   Ceiling: 2800
Heat Index: 26°   Visibility: 7mi
Dew Point: 23°   Wind: 8mph
Humidity: 89%   Direction: 190°S
Pressure: 30.15"   Gusts: NA
Location:  46.05°N, 87.49°W
Report Text: KSAW 210557Z AUTO 19007KT 7SM OVC028 M03/M05 A3015 RMK AO2 T10351050
Loading
Personal Weather Stations






























Interactive Weather Map New forecast layout! Learn more

10-Day Weather Forecast

Advertisements
Track Severe Weather on mobile